sensor_id;sensor_type;location;lat;lon;timestamp;P1;durP1;ratioP1;P2;durP2;ratioP2
62123;SDS011;48110;47.532;19.078;2024-03-08T00:01:48;33.75;;;24.60;;
62123;SDS011;48110;47.532;19.078;2024-03-08T00:04:51;33.47;;;24.80;;
62123;SDS011;48110;47.532;19.078;2024-03-08T00:07:54;34.58;;;25.95;;
62123;SDS011;48110;47.532;19.078;2024-03-08T00:10:57;34.03;;;25.15;;
62123;SDS011;48110;47.532;19.078;2024-03-08T00:14:00;31.05;;;23.92;;
62123;SDS011;48110;47.532;19.078;2024-03-08T00:17:04;34.90;;;24.90;;
62123;SDS011;48110;47.532;19.078;2024-03-08T00:20:08;33.00;;;24.17;;
62123;SDS011;48110;47.532;19.078;2024-03-08T00:23:11;32.00;;;24.83;;
62123;SDS011;48110;47.532;19.078;2024-03-08T00:26:14;34.78;;;25.65;;
62123;SDS011;48110;47.532;19.078;2024-03-08T00:29:18;32.55;;;24.83;;
62123;SDS011;48110;47.532;19.078;2024-03-08T00:32:21;32.40;;;24.77;;
62123;SDS011;48110;47.532;19.078;2024-03-08T00:35:26;34.38;;;24.92;;
62123;SDS011;48110;47.532;19.078;2024-03-08T00:38:29;32.45;;;24.00;;
62123;SDS011;48110;47.532;19.078;2024-03-08T00:41:33;32.38;;;25.35;;
62123;SDS011;48110;47.532;19.078;2024-03-08T00:44:35;34.65;;;24.83;;
62123;SDS011;48110;47.532;19.078;2024-03-08T00:47:39;34.47;;;24.40;;
62123;SDS011;48110;47.532;19.078;2024-03-08T00:50:42;36.55;;;25.20;;
62123;SDS011;48110;47.532;19.078;2024-03-08T00:53:48;31.55;;;24.50;;
62123;SDS011;48110;47.532;19.078;2024-03-08T00:56:51;35.47;;;26.27;;
62123;SDS011;48110;47.532;19.078;2024-03-08T01:00:10;36.95;;;26.00;;
62123;SDS011;48110;47.532;19.078;2024-03-08T01:03:15;33.63;;;26.45;;
62123;SDS011;48110;47.532;19.078;2024-03-08T01:06:18;36.03;;;25.75;;
62123;SDS011;48110;47.532;19.078;2024-03-08T01:09:22;34.47;;;26.05;;
62123;SDS011;48110;47.532;19.078;2024-03-08T01:12:26;34.25;;;25.88;;
62123;SDS011;48110;47.532;19.078;2024-03-08T01:15:29;34.13;;;24.77;;
62123;SDS011;48110;47.532;19.078;2024-03-08T01:18:32;34.88;;;25.45;;
62123;SDS011;48110;47.532;19.078;2024-03-08T01:21:35;34.45;;;26.15;;
62123;SDS011;48110;47.532;19.078;2024-03-08T01:24:39;34.50;;;26.55;;
62123;SDS011;48110;47.532;19.078;2024-03-08T01:27:41;36.42;;;25.73;;
62123;SDS011;48110;47.532;19.078;2024-03-08T01:30:44;34.83;;;26.58;;
62123;SDS011;48110;47.532;19.078;2024-03-08T01:33:50;37.22;;;27.73;;
62123;SDS011;48110;47.532;19.078;2024-03-08T01:36:53;35.33;;;26.77;;
62123;SDS011;48110;47.532;19.078;2024-03-08T01:40:00;34.78;;;26.85;;
62123;SDS011;48110;47.532;19.078;2024-03-08T01:43:26;34.70;;;25.98;;
62123;SDS011;48110;47.532;19.078;2024-03-08T01:46:31;37.78;;;26.45;;
62123;SDS011;48110;47.532;19.078;2024-03-08T01:49:35;35.63;;;26.58;;
62123;SDS011;48110;47.532;19.078;2024-03-08T01:52:38;36.97;;;27.17;;
62123;SDS011;48110;47.532;19.078;2024-03-08T01:55:41;36.42;;;27.05;;
62123;SDS011;48110;47.532;19.078;2024-03-08T01:58:45;38.83;;;27.80;;
62123;SDS011;48110;47.532;19.078;2024-03-08T02:01:49;36.75;;;27.13;;
62123;SDS011;48110;47.532;19.078;2024-03-08T02:04:54;35.45;;;26.90;;
62123;SDS011;48110;47.532;19.078;2024-03-08T02:07:59;40.35;;;28.52;;
62123;SDS011;48110;47.532;19.078;2024-03-08T02:11:03;39.72;;;29.10;;
62123;SDS011;48110;47.532;19.078;2024-03-08T02:14:07;43.97;;;29.45;;
62123;SDS011;48110;47.532;19.078;2024-03-08T02:17:10;42.83;;;29.60;;
62123;SDS011;48110;47.532;19.078;2024-03-08T02:20:14;43.42;;;29.23;;
62123;SDS011;48110;47.532;19.078;2024-03-08T02:23:18;45.67;;;31.30;;
62123;SDS011;48110;47.532;19.078;2024-03-08T02:26:22;45.70;;;30.55;;
62123;SDS011;48110;47.532;19.078;2024-03-08T02:29:25;44.58;;;31.73;;
62123;SDS011;48110;47.532;19.078;2024-03-08T02:32:28;47.75;;;31.33;;
62123;SDS011;48110;47.532;19.078;2024-03-08T02:35:33;50.65;;;33.38;;
62123;SDS011;48110;47.532;19.078;2024-03-08T02:38:36;43.85;;;31.65;;
62123;SDS011;48110;47.532;19.078;2024-03-08T02:41:39;48.65;;;32.75;;
62123;SDS011;48110;47.532;19.078;2024-03-08T02:44:42;45.70;;;32.17;;
62123;SDS011;48110;47.532;19.078;2024-03-08T02:47:47;48.47;;;33.70;;
62123;SDS011;48110;47.532;19.078;2024-03-08T02:50:52;44.15;;;32.08;;
62123;SDS011;48110;47.532;19.078;2024-03-08T02:53:56;51.75;;;33.30;;
62123;SDS011;48110;47.532;19.078;2024-03-08T02:56:59;46.37;;;33.58;;
62123;SDS011;48110;47.532;19.078;2024-03-08T03:00:03;50.58;;;33.85;;
62123;SDS011;48110;47.532;19.078;2024-03-08T03:03:07;54.75;;;35.58;;
62123;SDS011;48110;47.532;19.078;2024-03-08T03:06:10;55.88;;;36.28;;
62123;SDS011;48110;47.532;19.078;2024-03-08T03:09:14;51.25;;;36.10;;
62123;SDS011;48110;47.532;19.078;2024-03-08T03:12:19;52.10;;;36.10;;
62123;SDS011;48110;47.532;19.078;2024-03-08T03:15:22;57.45;;;37.63;;
62123;SDS011;48110;47.532;19.078;2024-03-08T03:18:29;56.70;;;37.10;;
62123;SDS011;48110;47.532;19.078;2024-03-08T03:21:35;60.50;;;38.63;;
62123;SDS011;48110;47.532;19.078;2024-03-08T03:24:39;56.20;;;38.60;;
62123;SDS011;48110;47.532;19.078;2024-03-08T03:27:41;55.12;;;37.55;;
62123;SDS011;48110;47.532;19.078;2024-03-08T03:30:45;63.25;;;38.55;;
62123;SDS011;48110;47.532;19.078;2024-03-08T03:33:49;57.28;;;37.72;;
62123;SDS011;48110;47.532;19.078;2024-03-08T03:36:54;63.33;;;39.33;;
62123;SDS011;48110;47.532;19.078;2024-03-08T03:39:57;60.95;;;38.88;;
62123;SDS011;48110;47.532;19.078;2024-03-08T03:43:01;60.50;;;39.08;;
62123;SDS011;48110;47.532;19.078;2024-03-08T03:46:06;67.07;;;39.45;;
62123;SDS011;48110;47.532;19.078;2024-03-08T03:49:10;60.80;;;38.35;;
62123;SDS011;48110;47.532;19.078;2024-03-08T03:52:13;65.62;;;39.97;;
62123;SDS011;48110;47.532;19.078;2024-03-08T03:55:16;63.95;;;39.17;;
62123;SDS011;48110;47.532;19.078;2024-03-08T03:58:18;60.12;;;39.22;;
62123;SDS011;48110;47.532;19.078;2024-03-08T04:01:25;56.15;;;38.40;;
62123;SDS011;48110;47.532;19.078;2024-03-08T04:04:30;64.45;;;40.15;;
62123;SDS011;48110;47.532;19.078;2024-03-08T04:07:34;58.42;;;39.33;;
62123;SDS011;48110;47.532;19.078;2024-03-08T04:10:37;58.00;;;38.42;;
62123;SDS011;48110;47.532;19.078;2024-03-08T04:13:40;60.08;;;39.63;;
62123;SDS011;48110;47.532;19.078;2024-03-08T04:16:43;59.22;;;39.13;;
62123;SDS011;48110;47.532;19.078;2024-03-08T04:19:46;62.20;;;39.75;;
62123;SDS011;48110;47.532;19.078;2024-03-08T04:22:51;68.90;;;40.67;;
62123;SDS011;48110;47.532;19.078;2024-03-08T04:25:54;63.30;;;40.12;;
62123;SDS011;48110;47.532;19.078;2024-03-08T04:28:57;65.72;;;41.15;;
62123;SDS011;48110;47.532;19.078;2024-03-08T04:32:00;62.45;;;40.08;;
62123;SDS011;48110;47.532;19.078;2024-03-08T04:35:06;60.78;;;38.88;;
62123;SDS011;48110;47.532;19.078;2024-03-08T04:38:09;59.85;;;40.60;;
62123;SDS011;48110;47.532;19.078;2024-03-08T04:41:12;61.25;;;39.75;;
62123;SDS011;48110;47.532;19.078;2024-03-08T04:44:15;67.35;;;40.05;;
62123;SDS011;48110;47.532;19.078;2024-03-08T04:47:20;63.05;;;40.42;;
62123;SDS011;48110;47.532;19.078;2024-03-08T04:50:26;61.10;;;40.50;;
62123;SDS011;48110;47.532;19.078;2024-03-08T04:53:31;65.18;;;41.30;;
62123;SDS011;48110;47.532;19.078;2024-03-08T04:56:36;63.90;;;39.75;;
62123;SDS011;48110;47.532;19.078;2024-03-08T04:59:39;67.93;;;42.47;;
62123;SDS011;48110;47.532;19.078;2024-03-08T05:02:42;65.47;;;40.80;;
62123;SDS011;48110;47.532;19.078;2024-03-08T05:05:46;66.93;;;41.55;;
62123;SDS011;48110;47.532;19.078;2024-03-08T05:08:49;65.40;;;42.35;;
62123;SDS011;48110;47.532;19.078;2024-03-08T05:11:52;65.32;;;41.05;;
62123;SDS011;48110;47.532;19.078;2024-03-08T05:14:55;64.62;;;41.33;;
62123;SDS011;48110;47.532;19.078;2024-03-08T05:17:58;61.70;;;41.47;;
62123;SDS011;48110;47.532;19.078;2024-03-08T05:21:02;65.95;;;41.58;;
62123;SDS011;48110;47.532;19.078;2024-03-08T05:24:06;63.20;;;42.15;;
62123;SDS011;48110;47.532;19.078;2024-03-08T05:27:10;64.18;;;41.55;;
62123;SDS011;48110;47.532;19.078;2024-03-08T05:30:14;61.95;;;41.83;;
62123;SDS011;48110;47.532;19.078;2024-03-08T05:33:18;63.33;;;41.10;;
62123;SDS011;48110;47.532;19.078;2024-03-08T05:36:22;65.35;;;41.92;;
62123;SDS011;48110;47.532;19.078;2024-03-08T05:39:24;67.45;;;41.88;;
62123;SDS011;48110;47.532;19.078;2024-03-08T05:42:28;67.57;;;42.10;;
62123;SDS011;48110;47.532;19.078;2024-03-08T05:45:30;66.47;;;41.42;;
62123;SDS011;48110;47.532;19.078;2024-03-08T05:48:34;63.35;;;41.55;;
62123;SDS011;48110;47.532;19.078;2024-03-08T05:51:37;64.50;;;41.83;;
62123;SDS011;48110;47.532;19.078;2024-03-08T05:54:41;66.90;;;41.63;;
62123;SDS011;48110;47.532;19.078;2024-03-08T05:57:45;61.92;;;41.08;;
62123;SDS011;48110;47.532;19.078;2024-03-08T06:00:48;66.00;;;40.85;;
62123;SDS011;48110;47.532;19.078;2024-03-08T06:03:55;65.47;;;41.78;;
62123;SDS011;48110;47.532;19.078;2024-03-08T06:06:59;65.47;;;41.55;;
62123;SDS011;48110;47.532;19.078;2024-03-08T06:10:02;68.35;;;42.28;;
62123;SDS011;48110;47.532;19.078;2024-03-08T06:13:06;66.85;;;42.67;;
62123;SDS011;48110;47.532;19.078;2024-03-08T06:16:10;69.35;;;41.83;;
62123;SDS011;48110;47.532;19.078;2024-03-08T06:19:13;65.65;;;41.25;;
62123;SDS011;48110;47.532;19.078;2024-03-08T06:22:16;66.60;;;41.75;;
62123;SDS011;48110;47.532;19.078;2024-03-08T06:25:18;67.93;;;42.00;;
62123;SDS011;48110;47.532;19.078;2024-03-08T06:28:21;68.15;;;42.47;;
62123;SDS011;48110;47.532;19.078;2024-03-08T06:31:24;66.82;;;41.97;;
62123;SDS011;48110;47.532;19.078;2024-03-08T06:34:28;66.05;;;43.00;;
62123;SDS011;48110;47.532;19.078;2024-03-08T06:37:30;66.00;;;42.38;;
62123;SDS011;48110;47.532;19.078;2024-03-08T06:40:34;66.10;;;40.97;;
62123;SDS011;48110;47.532;19.078;2024-03-08T06:43:37;69.40;;;41.20;;
62123;SDS011;48110;47.532;19.078;2024-03-08T06:46:40;66.03;;;41.60;;
62123;SDS011;48110;47.532;19.078;2024-03-08T06:49:43;64.30;;;40.53;;
62123;SDS011;48110;47.532;19.078;2024-03-08T06:52:46;60.83;;;39.83;;
62123;SDS011;48110;47.532;19.078;2024-03-08T06:55:56;63.90;;;41.08;;
62123;SDS011;48110;47.532;19.078;2024-03-08T06:59:00;60.38;;;39.80;;
62123;SDS011;48110;47.532;19.078;2024-03-08T07:02:05;65.43;;;40.08;;
62123;SDS011;48110;47.532;19.078;2024-03-08T07:05:12;59.55;;;40.05;;
62123;SDS011;48110;47.532;19.078;2024-03-08T07:08:14;63.15;;;41.83;;
62123;SDS011;48110;47.532;19.078;2024-03-08T07:11:19;63.50;;;42.15;;
62123;SDS011;48110;47.532;19.078;2024-03-08T07:14:22;62.45;;;40.97;;
62123;SDS011;48110;47.532;19.078;2024-03-08T07:17:25;58.72;;;39.42;;
62123;SDS011;48110;47.532;19.078;2024-03-08T07:20:29;61.67;;;40.45;;
62123;SDS011;48110;47.532;19.078;2024-03-08T07:23:32;62.50;;;39.22;;
62123;SDS011;48110;47.532;19.078;2024-03-08T07:27:04;60.20;;;40.70;;
62123;SDS011;48110;47.532;19.078;2024-03-08T07:30:10;61.63;;;40.20;;
62123;SDS011;48110;47.532;19.078;2024-03-08T07:33:14;62.58;;;40.58;;
62123;SDS011;48110;47.532;19.078;2024-03-08T07:36:18;67.03;;;40.58;;
62123;SDS011;48110;47.532;19.078;2024-03-08T07:39:20;60.85;;;40.28;;
62123;SDS011;48110;47.532;19.078;2024-03-08T07:42:26;62.42;;;40.35;;
62123;SDS011;48110;47.532;19.078;2024-03-08T07:45:31;62.00;;;40.53;;
62123;SDS011;48110;47.532;19.078;2024-03-08T07:48:34;63.90;;;42.05;;
62123;SDS011;48110;47.532;19.078;2024-03-08T07:51:37;63.30;;;39.88;;
62123;SDS011;48110;47.532;19.078;2024-03-08T07:54:41;61.90;;;39.15;;
62123;SDS011;48110;47.532;19.078;2024-03-08T07:57:44;61.65;;;39.65;;
62123;SDS011;48110;47.532;19.078;2024-03-08T08:00:47;66.53;;;39.92;;
62123;SDS011;48110;47.532;19.078;2024-03-08T08:03:50;64.32;;;41.22;;
62123;SDS011;48110;47.532;19.078;2024-03-08T08:06:52;68.32;;;40.88;;
62123;SDS011;48110;47.532;19.078;2024-03-08T08:09:57;68.22;;;41.60;;
62123;SDS011;48110;47.532;19.078;2024-03-08T08:13:00;64.95;;;40.50;;
62123;SDS011;48110;47.532;19.078;2024-03-08T08:16:07;71.07;;;41.67;;
62123;SDS011;48110;47.532;19.078;2024-03-08T08:19:10;70.10;;;40.78;;
62123;SDS011;48110;47.532;19.078;2024-03-08T08:22:17;70.70;;;41.97;;
62123;SDS011;48110;47.532;19.078;2024-03-08T08:25:20;65.28;;;41.10;;
62123;SDS011;48110;47.532;19.078;2024-03-08T08:28:25;64.87;;;40.78;;
62123;SDS011;48110;47.532;19.078;2024-03-08T08:31:28;61.47;;;40.03;;
62123;SDS011;48110;47.532;19.078;2024-03-08T08:34:31;68.07;;;41.13;;
62123;SDS011;48110;47.532;19.078;2024-03-08T08:37:34;78.07;;;44.08;;
62123;SDS011;48110;47.532;19.078;2024-03-08T08:40:40;68.07;;;41.25;;
62123;SDS011;48110;47.532;19.078;2024-03-08T08:43:44;70.53;;;42.55;;
62123;SDS011;48110;47.532;19.078;2024-03-08T08:50:16;74.82;;;43.13;;
62123;SDS011;48110;47.532;19.078;2024-03-08T08:53:26;71.90;;;43.33;;
62123;SDS011;48110;47.532;19.078;2024-03-08T08:56:30;75.70;;;43.67;;
62123;SDS011;48110;47.532;19.078;2024-03-08T08:59:33;73.07;;;43.87;;
62123;SDS011;48110;47.532;19.078;2024-03-08T09:02:38;72.03;;;43.20;;
62123;SDS011;48110;47.532;19.078;2024-03-08T09:05:41;79.85;;;44.00;;
62123;SDS011;48110;47.532;19.078;2024-03-08T09:08:47;71.25;;;42.50;;
62123;SDS011;48110;47.532;19.078;2024-03-08T09:11:50;71.25;;;43.75;;
62123;SDS011;48110;47.532;19.078;2024-03-08T09:14:54;69.07;;;40.83;;
62123;SDS011;48110;47.532;19.078;2024-03-08T09:17:57;70.12;;;41.80;;
62123;SDS011;48110;47.532;19.078;2024-03-08T09:21:02;69.78;;;42.65;;
62123;SDS011;48110;47.532;19.078;2024-03-08T09:24:06;68.93;;;40.97;;
62123;SDS011;48110;47.532;19.078;2024-03-08T09:27:11;73.18;;;42.03;;
62123;SDS011;48110;47.532;19.078;2024-03-08T09:30:14;68.60;;;40.75;;
62123;SDS011;48110;47.532;19.078;2024-03-08T09:33:17;72.37;;;42.22;;
62123;SDS011;48110;47.532;19.078;2024-03-08T09:36:22;67.28;;;40.17;;
62123;SDS011;48110;47.532;19.078;2024-03-08T09:39:24;67.82;;;40.72;;
62123;SDS011;48110;47.532;19.078;2024-03-08T09:42:29;67.55;;;40.55;;
62123;SDS011;48110;47.532;19.078;2024-03-08T09:45:35;67.35;;;41.37;;
62123;SDS011;48110;47.532;19.078;2024-03-08T09:48:42;63.85;;;39.72;;
62123;SDS011;48110;47.532;19.078;2024-03-08T09:51:45;64.90;;;38.80;;
62123;SDS011;48110;47.532;19.078;2024-03-08T09:54:49;63.65;;;39.30;;
62123;SDS011;48110;47.532;19.078;2024-03-08T09:57:52;64.85;;;39.85;;
62123;SDS011;48110;47.532;19.078;2024-03-08T10:01:17;64.28;;;39.05;;
62123;SDS011;48110;47.532;19.078;2024-03-08T10:04:24;64.25;;;38.92;;
62123;SDS011;48110;47.532;19.078;2024-03-08T10:07:28;67.53;;;39.45;;
62123;SDS011;48110;47.532;19.078;2024-03-08T10:10:33;65.22;;;39.30;;
62123;SDS011;48110;47.532;19.078;2024-03-08T10:13:38;61.60;;;37.83;;
62123;SDS011;48110;47.532;19.078;2024-03-08T10:16:43;61.80;;;37.70;;
62123;SDS011;48110;47.532;19.078;2024-03-08T10:19:49;59.72;;;37.72;;
62123;SDS011;48110;47.532;19.078;2024-03-08T10:22:54;59.03;;;35.60;;
62123;SDS011;48110;47.532;19.078;2024-03-08T10:26:12;58.08;;;36.30;;
62123;SDS011;48110;47.532;19.078;2024-03-08T10:29:19;59.38;;;36.63;;
62123;SDS011;48110;47.532;19.078;2024-03-08T10:32:22;61.83;;;37.38;;
62123;SDS011;48110;47.532;19.078;2024-03-08T10:35:26;54.33;;;34.92;;
62123;SDS011;48110;47.532;19.078;2024-03-08T10:38:30;53.38;;;34.50;;
62123;SDS011;48110;47.532;19.078;2024-03-08T10:41:38;55.22;;;33.42;;
62123;SDS011;48110;47.532;19.078;2024-03-08T10:45:29;53.22;;;33.70;;
62123;SDS011;48110;47.532;19.078;2024-03-08T10:51:26;52.13;;;32.20;;
62123;SDS011;48110;47.532;19.078;2024-03-08T10:54:32;46.95;;;30.73;;
62123;SDS011;48110;47.532;19.078;2024-03-08T10:57:37;48.47;;;30.62;;
62123;SDS011;48110;47.532;19.078;2024-03-08T11:00:41;46.15;;;29.73;;
62123;SDS011;48110;47.532;19.078;2024-03-08T11:03:45;43.15;;;28.85;;
62123;SDS011;48110;47.532;19.078;2024-03-08T11:06:51;42.97;;;28.00;;
62123;SDS011;48110;47.532;19.078;2024-03-08T11:09:57;41.90;;;29.35;;
62123;SDS011;48110;47.532;19.078;2024-03-08T11:13:00;42.72;;;29.00;;
62123;SDS011;48110;47.532;19.078;2024-03-08T11:16:07;47.55;;;31.33;;
62123;SDS011;48110;47.532;19.078;2024-03-08T11:22:23;44.78;;;30.08;;
62123;SDS011;48110;47.532;19.078;2024-03-08T11:28:33;43.47;;;29.75;;
62123;SDS011;48110;47.532;19.078;2024-03-08T11:31:36;44.40;;;31.02;;
62123;SDS011;48110;47.532;19.078;2024-03-08T11:34:39;44.20;;;30.70;;
62123;SDS011;48110;47.532;19.078;2024-03-08T11:37:46;45.05;;;29.58;;
62123;SDS011;48110;47.532;19.078;2024-03-08T11:40:50;44.60;;;29.58;;
62123;SDS011;48110;47.532;19.078;2024-03-08T11:44:04;41.35;;;28.40;;
62123;SDS011;48110;47.532;19.078;2024-03-08T11:47:08;44.40;;;29.55;;
62123;SDS011;48110;47.532;19.078;2024-03-08T11:50:14;43.70;;;28.52;;
62123;SDS011;48110;47.532;19.078;2024-03-08T11:53:17;46.70;;;30.85;;
62123;SDS011;48110;47.532;19.078;2024-03-08T11:56:21;47.45;;;30.73;;
62123;SDS011;48110;47.532;19.078;2024-03-08T11:59:24;42.35;;;29.87;;
62123;SDS011;48110;47.532;19.078;2024-03-08T12:02:27;42.13;;;30.00;;
62123;SDS011;48110;47.532;19.078;2024-03-08T12:05:33;40.10;;;28.95;;
62123;SDS011;48110;47.532;19.078;2024-03-08T12:08:36;42.22;;;29.90;;
62123;SDS011;48110;47.532;19.078;2024-03-08T12:11:49;46.88;;;31.40;;
62123;SDS011;48110;47.532;19.078;2024-03-08T12:14:54;42.62;;;30.40;;
62123;SDS011;48110;47.532;19.078;2024-03-08T12:17:58;47.22;;;32.03;;
62123;SDS011;48110;47.532;19.078;2024-03-08T12:24:10;45.70;;;31.95;;
62123;SDS011;48110;47.532;19.078;2024-03-08T12:27:20;47.53;;;33.35;;
62123;SDS011;48110;47.532;19.078;2024-03-08T12:30:26;48.63;;;33.28;;
62123;SDS011;48110;47.532;19.078;2024-03-08T12:33:29;49.08;;;33.35;;
62123;SDS011;48110;47.532;19.078;2024-03-08T12:36:33;47.67;;;31.30;;
62123;SDS011;48110;47.532;19.078;2024-03-08T12:39:40;42.17;;;30.02;;
62123;SDS011;48110;47.532;19.078;2024-03-08T12:42:47;51.70;;;31.10;;
62123;SDS011;48110;47.532;19.078;2024-03-08T12:45:50;40.22;;;29.58;;
62123;SDS011;48110;47.532;19.078;2024-03-08T12:48:54;40.33;;;28.05;;
62123;SDS011;48110;47.532;19.078;2024-03-08T12:51:57;39.63;;;26.85;;
62123;SDS011;48110;47.532;19.078;2024-03-08T12:55:00;39.08;;;27.23;;
62123;SDS011;48110;47.532;19.078;2024-03-08T12:58:06;36.13;;;25.77;;
62123;SDS011;48110;47.532;19.078;2024-03-08T13:01:12;36.70;;;25.30;;
62123;SDS011;48110;47.532;19.078;2024-03-08T13:04:16;33.63;;;24.67;;
62123;SDS011;48110;47.532;19.078;2024-03-08T13:07:21;33.15;;;24.50;;
62123;SDS011;48110;47.532;19.078;2024-03-08T13:10:25;32.45;;;24.37;;
62123;SDS011;48110;47.532;19.078;2024-03-08T13:13:29;30.50;;;23.38;;
62123;SDS011;48110;47.532;19.078;2024-03-08T13:16:32;28.10;;;22.37;;
62123;SDS011;48110;47.532;19.078;2024-03-08T13:19:37;29.80;;;22.20;;
62123;SDS011;48110;47.532;19.078;2024-03-08T13:22:40;28.12;;;22.00;;
62123;SDS011;48110;47.532;19.078;2024-03-08T13:25:43;36.42;;;26.87;;
62123;SDS011;48110;47.532;19.078;2024-03-08T13:28:46;45.60;;;30.98;;
62123;SDS011;48110;47.532;19.078;2024-03-08T13:31:56;44.38;;;32.38;;
62123;SDS011;48110;47.532;19.078;2024-03-08T13:35:04;44.75;;;32.42;;
62123;SDS011;48110;47.532;19.078;2024-03-08T13:38:15;46.20;;;31.90;;
62123;SDS011;48110;47.532;19.078;2024-03-08T13:41:17;44.88;;;32.35;;
62123;SDS011;48110;47.532;19.078;2024-03-08T13:44:25;49.20;;;33.90;;
62123;SDS011;48110;47.532;19.078;2024-03-08T13:47:28;48.67;;;34.60;;
62123;SDS011;48110;47.532;19.078;2024-03-08T13:50:31;46.30;;;33.03;;
62123;SDS011;48110;47.532;19.078;2024-03-08T13:53:34;46.05;;;33.50;;
62123;SDS011;48110;47.532;19.078;2024-03-08T13:56:37;46.53;;;32.22;;
62123;SDS011;48110;47.532;19.078;2024-03-08T13:59:40;45.55;;;31.05;;
62123;SDS011;48110;47.532;19.078;2024-03-08T14:02:43;44.55;;;31.27;;
62123;SDS011;48110;47.532;19.078;2024-03-08T14:05:46;42.47;;;29.63;;
62123;SDS011;48110;47.532;19.078;2024-03-08T14:08:49;43.55;;;29.25;;
62123;SDS011;48110;47.532;19.078;2024-03-08T14:11:52;40.75;;;29.33;;
62123;SDS011;48110;47.532;19.078;2024-03-08T14:14:58;42.60;;;31.12;;
62123;SDS011;48110;47.532;19.078;2024-03-08T14:18:02;45.17;;;31.08;;
62123;SDS011;48110;47.532;19.078;2024-03-08T14:21:09;42.70;;;30.27;;
62123;SDS011;48110;47.532;19.078;2024-03-08T14:24:14;39.30;;;28.27;;
62123;SDS011;48110;47.532;19.078;2024-03-08T14:27:18;39.63;;;28.00;;
62123;SDS011;48110;47.532;19.078;2024-03-08T14:30:21;42.05;;;28.65;;
62123;SDS011;48110;47.532;19.078;2024-03-08T14:33:41;38.58;;;27.87;;
62123;SDS011;48110;47.532;19.078;2024-03-08T14:36:45;38.80;;;26.90;;
62123;SDS011;48110;47.532;19.078;2024-03-08T14:39:48;39.45;;;28.58;;
62123;SDS011;48110;47.532;19.078;2024-03-08T14:42:52;46.13;;;29.83;;
62123;SDS011;48110;47.532;19.078;2024-03-08T14:45:54;43.85;;;30.65;;
62123;SDS011;48110;47.532;19.078;2024-03-08T14:48:58;42.70;;;29.33;;
62123;SDS011;48110;47.532;19.078;2024-03-08T14:52:01;37.88;;;28.90;;
62123;SDS011;48110;47.532;19.078;2024-03-08T14:55:08;40.38;;;29.00;;
62123;SDS011;48110;47.532;19.078;2024-03-08T14:58:12;44.03;;;27.90;;
62123;SDS011;48110;47.532;19.078;2024-03-08T15:01:15;39.22;;;28.50;;
62123;SDS011;48110;47.532;19.078;2024-03-08T15:04:18;41.67;;;28.45;;
62123;SDS011;48110;47.532;19.078;2024-03-08T15:07:23;41.05;;;28.98;;
62123;SDS011;48110;47.532;19.078;2024-03-08T15:10:32;43.38;;;29.25;;
62123;SDS011;48110;47.532;19.078;2024-03-08T15:13:36;41.75;;;29.33;;
62123;SDS011;48110;47.532;19.078;2024-03-08T15:16:43;41.22;;;29.45;;
62123;SDS011;48110;47.532;19.078;2024-03-08T15:19:49;38.38;;;27.90;;
62123;SDS011;48110;47.532;19.078;2024-03-08T15:22:54;41.10;;;27.95;;
62123;SDS011;48110;47.532;19.078;2024-03-08T15:26:01;39.17;;;27.10;;
62123;SDS011;48110;47.532;19.078;2024-03-08T15:29:06;41.03;;;28.42;;
62123;SDS011;48110;47.532;19.078;2024-03-08T15:32:09;44.70;;;28.27;;
62123;SDS011;48110;47.532;19.078;2024-03-08T15:35:16;42.65;;;29.70;;
62123;SDS011;48110;47.532;19.078;2024-03-08T15:38:21;43.42;;;29.83;;
62123;SDS011;48110;47.532;19.078;2024-03-08T15:41:24;41.72;;;29.85;;
62123;SDS011;48110;47.532;19.078;2024-03-08T15:44:29;45.33;;;30.50;;
62123;SDS011;48110;47.532;19.078;2024-03-08T15:47:35;45.20;;;30.12;;
62123;SDS011;48110;47.532;19.078;2024-03-08T15:50:39;44.55;;;30.48;;
62123;SDS011;48110;47.532;19.078;2024-03-08T15:53:43;45.25;;;31.02;;
62123;SDS011;48110;47.532;19.078;2024-03-08T15:56:48;43.92;;;31.40;;
62123;SDS011;48110;47.532;19.078;2024-03-08T15:59:51;46.72;;;31.12;;
62123;SDS011;48110;47.532;19.078;2024-03-08T16:02:54;48.63;;;31.42;;
62123;SDS011;48110;47.532;19.078;2024-03-08T16:05:59;45.67;;;31.35;;
62123;SDS011;48110;47.532;19.078;2024-03-08T16:09:02;44.17;;;31.05;;
62123;SDS011;48110;47.532;19.078;2024-03-08T16:12:06;42.60;;;30.83;;
62123;SDS011;48110;47.532;19.078;2024-03-08T16:15:09;46.37;;;31.20;;
62123;SDS011;48110;47.532;19.078;2024-03-08T16:18:13;45.78;;;31.33;;
62123;SDS011;48110;47.532;19.078;2024-03-08T16:21:16;46.90;;;30.85;;
62123;SDS011;48110;47.532;19.078;2024-03-08T16:24:19;44.78;;;31.00;;
62123;SDS011;48110;47.532;19.078;2024-03-08T16:27:22;42.70;;;30.62;;
62123;SDS011;48110;47.532;19.078;2024-03-08T16:30:25;43.40;;;29.73;;
62123;SDS011;48110;47.532;19.078;2024-03-08T16:33:29;41.88;;;29.67;;
62123;SDS011;48110;47.532;19.078;2024-03-08T16:36:32;47.17;;;29.90;;
62123;SDS011;48110;47.532;19.078;2024-03-08T16:39:35;42.05;;;29.77;;
62123;SDS011;48110;47.532;19.078;2024-03-08T16:42:38;46.63;;;29.65;;
62123;SDS011;48110;47.532;19.078;2024-03-08T16:45:41;41.72;;;28.15;;
62123;SDS011;48110;47.532;19.078;2024-03-08T16:48:44;42.85;;;29.12;;
62123;SDS011;48110;47.532;19.078;2024-03-08T16:51:47;42.40;;;28.92;;
62123;SDS011;48110;47.532;19.078;2024-03-08T16:54:51;45.28;;;29.30;;
62123;SDS011;48110;47.532;19.078;2024-03-08T16:58:07;44.25;;;29.67;;
62123;SDS011;48110;47.532;19.078;2024-03-08T17:01:18;41.65;;;28.75;;
62123;SDS011;48110;47.532;19.078;2024-03-08T17:04:21;48.05;;;30.25;;
62123;SDS011;48110;47.532;19.078;2024-03-08T17:07:24;48.33;;;30.58;;
62123;SDS011;48110;47.532;19.078;2024-03-08T17:10:27;42.08;;;29.63;;
62123;SDS011;48110;47.532;19.078;2024-03-08T17:13:30;44.58;;;30.83;;
62123;SDS011;48110;47.532;19.078;2024-03-08T17:16:34;42.55;;;30.52;;
62123;SDS011;48110;47.532;19.078;2024-03-08T17:19:40;42.25;;;30.58;;
62123;SDS011;48110;47.532;19.078;2024-03-08T17:22:44;45.40;;;32.17;;
62123;SDS011;48110;47.532;19.078;2024-03-08T17:25:47;43.92;;;31.52;;
62123;SDS011;48110;47.532;19.078;2024-03-08T17:28:50;46.20;;;31.92;;
62123;SDS011;48110;47.532;19.078;2024-03-08T17:31:53;48.92;;;32.80;;
62123;SDS011;48110;47.532;19.078;2024-03-08T17:34:56;43.95;;;31.90;;
62123;SDS011;48110;47.532;19.078;2024-03-08T17:38:00;45.92;;;31.48;;
62123;SDS011;48110;47.532;19.078;2024-03-08T17:41:11;45.78;;;31.37;;
62123;SDS011;48110;47.532;19.078;2024-03-08T17:44:19;47.53;;;30.95;;
62123;SDS011;48110;47.532;19.078;2024-03-08T17:47:23;46.08;;;32.35;;
62123;SDS011;48110;47.532;19.078;2024-03-08T17:50:27;50.83;;;32.42;;
62123;SDS011;48110;47.532;19.078;2024-03-08T17:53:30;43.30;;;31.77;;
62123;SDS011;48110;47.532;19.078;2024-03-08T17:56:33;48.40;;;33.25;;
62123;SDS011;48110;47.532;19.078;2024-03-08T17:59:36;46.25;;;32.38;;